Terminal Aerodrome Forecast
Issued by NWS

Home | Current Version | Previous Version | Text Only | Print | Product List | Glossary On
Versions: 1 2 3 4 5 6 7 8 9 10 11 12 13 14
000
FTAK31 PAJN 181740
TAFAKT
TAF
PAKT 181740Z 1818/1918 14012G20KT 5SM -RA BR SCT015 OVC025
     FM190300 15012KT 4SM -SHRA BR OVC015
      AMD LTD TO CLD VIS AND WIND 1906/1915=

USA.gov is the U.S. government's official web portal to all federal, state and local government web resources and services.